Time;durP1;ratioP1;P1;durP2;ratioP2;P2;SDS_P1;SDS_P2;PMS_P1;PMS_P2;Temp;Humidity;BMP_temperature;BMP_pressure;BME280_temperature;BME280_humidity;BME280_pressure;Samples;Min_cycle;Max_cycle;Signal;HPM_P1;HPM_P2
2021/09/18 00:08:02;;;;;;;6.17;4.00;;;12.90;99.90;;;;;;20821608;28;20094;-80
2021/09/18 00:18:03;;;;;;;7.83;3.97;;;12.90;99.90;;;;;;20805615;28;20037;-80
2021/09/18 00:28:04;;;;;;;6.17;3.37;;;12.80;99.90;;;;;;20827821;28;20055;-80
2021/09/18 00:38:05;;;;;;;6.33;4.20;;;12.80;99.90;;;;;;20767997;28;20040;-80
2021/09/18 00:48:06;;;;;;;4.70;3.73;;;12.60;99.90;;;;;;20766610;28;20045;-80
2021/09/18 00:58:06;;;;;;;4.63;3.70;;;12.60;99.90;;;;;;20767132;28;20389;-80
2021/09/18 01:08:10;;;;;;;5.37;3.63;;;12.50;99.90;;;;;;20764578;28;20034;-79
2021/09/18 01:18:11;;;;;;;6.10;4.40;;;12.30;99.90;;;;;;20775910;28;20050;-79
2021/09/18 01:28:13;;;;;;;6.65;4.68;;;12.20;99.90;;;;;;20762450;28;20132;-80
2021/09/18 01:38:14;;;;;;;5.90;3.90;;;12.20;99.90;;;;;;20763251;28;20072;-79
2021/09/18 01:48:15;;;;;;;5.73;4.13;;;11.90;99.90;;;;;;20771571;28;20029;-78
2021/09/18 01:58:17;;;;;;;5.60;3.92;;;11.90;99.90;;;;;;20760935;28;20044;-80
2021/09/18 02:08:18;;;;;;;5.80;3.47;;;11.90;99.90;;;;;;20760044;28;20473;-81
2021/09/18 02:18:19;;;;;;;5.50;3.53;;;11.70;99.90;;;;;;20760460;28;20021;-81
2021/09/18 02:28:20;;;;;;;11.33;4.00;;;11.80;99.90;;;;;;20769843;28;20058;-80
2021/09/18 02:38:21;;;;;;;4.67;3.83;;;11.60;99.90;;;;;;20776100;28;20037;-79
2021/09/18 02:48:21;;;;;;;5.13;3.43;;;11.60;99.90;;;;;;20774897;28;20041;-80
2021/09/18 02:58:22;;;;;;;4.50;3.60;;;11.60;99.90;;;;;;20774636;28;20508;-77
2021/09/18 03:08:23;;;;;;;4.80;3.67;;;11.50;99.90;;;;;;20773619;28;20038;-80
2021/09/18 03:18:24;;;;;;;10.70;3.87;;;11.30;99.90;;;;;;20773157;28;20037;-79
2021/09/18 03:28:25;;;;;;;7.77;3.77;;;11.20;99.90;;;;;;20774002;28;20030;-80
2021/09/18 03:38:25;;;;;;;5.27;3.53;;;11.10;99.90;;;;;;20781024;28;20088;-80
2021/09/18 03:48:27;;;;;;;27.90;5.07;;;11.10;99.90;;;;;;20770920;28;20034;-80
2021/09/18 03:58:28;;;;;;;6.50;3.58;;;11.00;99.90;;;;;;20770158;28;20026;-81
2021/09/18 04:08:29;;;;;;;27.13;4.33;;;10.70;99.90;;;;;;20769141;28;20192;-80
2021/09/18 04:18:30;;;;;;;6.10;4.30;;;10.30;99.90;;;;;;20769371;28;20040;-80
2021/09/18 04:28:31;;;;;;;11.77;5.37;;;10.60;99.90;;;;;;20767398;28;20481;-80
2021/09/18 04:38:32;;;;;;;7.73;5.47;;;10.70;99.90;;;;;;20768368;28;20404;-81
2021/09/18 04:48:33;;;;;;;15.97;6.70;;;10.60;99.90;;;;;;20766322;28;20029;-81
2021/09/18 04:58:34;;;;;;;8.33;5.80;;;10.50;99.90;;;;;;20766152;28;20378;-79
2021/09/18 05:08:34;;;;;;;11.20;6.00;;;10.40;99.90;;;;;;20767983;28;20030;-79
2021/09/18 05:18:35;;;;;;;12.20;7.47;;;10.20;99.90;;;;;;20766539;28;20058;-78
2021/09/18 05:28:36;;;;;;;17.57;8.67;;;10.20;99.90;;;;;;20767682;28;20025;-79
2021/09/18 05:38:37;;;;;;;12.00;8.13;;;10.40;99.90;;;;;;20777392;28;20030;-79
2021/09/18 05:48:38;;;;;;;11.47;7.60;;;10.40;99.90;;;;;;20765733;28;20117;-79
2021/09/18 05:58:39;;;;;;;12.20;7.23;;;10.60;99.90;;;;;;20763795;28;20033;-78
2021/09/18 06:08:39;;;;;;;10.07;6.63;;;10.80;99.90;;;;;;20743517;28;20497;-78
2021/09/18 06:18:41;;;;;;;12.00;6.30;;;11.40;99.90;;;;;;20762029;28;20049;-79
2021/09/18 06:28:43;;;;;;;;;;;12.10;99.90;;;;;;20787106;28;20048;-79
2021/09/18 06:38:43;;;;;;;13.40;5.93;;;13.00;99.90;;;;;;20852070;28;19917;-78
2021/09/18 06:48:44;;;;;;;9.03;5.67;;;13.20;99.90;;;;;;20861788;28;20040;-79
2021/09/18 06:58:45;;;;;;;8.63;5.07;;;13.80;99.90;;;;;;20861896;28;20036;-79
2021/09/18 07:08:46;;;;;;;7.67;4.77;;;14.60;99.90;;;;;;20861325;28;20058;-78
2021/09/18 07:18:47;;;;;;;6.93;4.33;;;14.90;99.90;;;;;;20877339;28;20030;-79
2021/09/18 07:28:48;;;;;;;6.93;4.60;;;15.50;99.90;;;;;;20879613;28;20032;-79
2021/09/18 07:38:49;;;;;;;5.93;3.80;;;15.70;99.90;;;;;;20883473;28;20022;-79
2021/09/18 07:48:50;;;;;;;5.30;4.17;;;16.10;99.90;;;;;;20859047;28;20080;-78
2021/09/18 07:58:54;;;;;;;8.00;4.57;;;16.70;99.90;;;;;;20782696;28;20033;-80
2021/09/18 08:08:55;;;;;;;5.40;3.28;;;17.30;99.90;;;;;;20771536;28;20025;-80
2021/09/18 08:18:56;;;;;;;6.00;3.53;;;18.70;99.90;;;;;;20767220;28;20059;-78
2021/09/18 08:28:58;;;;;;;5.87;3.90;;;18.90;99.90;;;;;;20765688;28;20041;-80
2021/09/18 08:38:59;;;;;;;5.25;3.38;;;18.60;99.90;;;;;;20765303;28;20061;-80
2021/09/18 08:49:00;;;;;;;5.93;4.07;;;19.70;99.90;;;;;;20765266;28;20114;-80
2021/09/18 08:59:01;;;;;;;5.67;3.57;;;19.60;99.90;;;;;;20765800;28;20117;-79
2021/09/18 09:09:02;;;;;;;5.63;3.60;;;20.30;99.90;;;;;;20764193;28;20033;-79
2021/09/18 09:19:15;;;;;;;5.00;3.73;;;22.20;99.90;;;;;;20764948;28;20475;-81
2021/09/18 09:29:15;;;;;;;5.50;2.90;;;22.10;99.90;;;;;;20768629;28;20203;-81
2021/09/18 09:39:27;;;;;;;4.97;3.03;;;22.60;99.90;;;;;;20775616;28;20022;-81
2021/09/18 09:49:40;;;;;;;2.95;2.15;;;22.60;99.90;;;;;;20805213;28;20048;-81
2021/09/18 09:59:41;;;;;;;3.33;2.35;;;22.80;99.90;;;;;;20787519;28;20030;-81
2021/09/18 10:09:42;;;;;;;;;;;22.80;99.90;;;;;;20844598;28;20120;-81
2021/09/18 10:29:51;;;;;;;10.57;3.85;;;23.40;99.90;;;;;;20760414;28;20029;-78
2021/09/18 10:40:10;;;;;;;3.88;2.17;;;23.60;99.90;;;;;;20856744;28;20037;-78
2021/09/18 10:50:26;;;;;;;2.72;1.88;;;24.30;99.90;;;;;;20792639;28;20068;-78
2021/09/18 11:00:30;;;;;;;4.70;2.10;;;24.90;99.90;;;;;;20784466;28;20037;-79
2021/09/18 11:10:30;;;;;;;5.55;2.00;;;25.10;99.90;;;;;;20794982;28;20147;-78
2021/09/18 11:20:33;;;;;;;;;;;25.20;99.90;;;;;;20786875;28;20038;-79
2021/09/18 11:30:42;;;;;;;1.80;1.55;;;25.50;99.90;;;;;;20783393;28;20510;-79
2021/09/18 11:40:43;;;;;;;3.28;1.67;;;26.00;99.90;;;;;;20740162;28;20038;-78
2021/09/18 11:50:45;;;;;;;2.20;1.50;;;25.70;99.90;;;;;;20742246;28;20049;-78
2021/09/18 12:00:50;;;;;;;3.20;1.20;;;25.00;99.90;;;;;;20796200;28;20033;-77
2021/09/18 12:10:53;;;;;;;2.35;1.70;;;25.60;99.90;;;;;;20836772;28;20043;-77
2021/09/18 12:20:56;;;;;;;4.95;1.40;;;27.30;99.90;;;;;;20833322;28;20043;-78
2021/09/18 12:30:58;;;;;;;4.20;1.90;;;26.80;99.90;;;;;;20824277;28;20033;-77
2021/09/18 12:41:02;;;;;;;2.05;1.42;;;26.80;99.90;;;;;;20832691;28;20045;-79
2021/09/18 12:51:19;;;;;;;1.98;1.67;;;25.40;99.90;;;;;;20826417;28;20056;-81
2021/09/18 13:01:35;;;;;;;3.20;1.60;;;24.90;99.90;;;;;;20823753;28;20036;-82
2021/09/18 13:11:45;;;;;;;2.53;1.45;;;25.90;99.90;;;;;;20825334;28;20467;-79
2021/09/18 13:21:46;;;;;;;5.75;1.40;;;26.30;99.90;;;;;;20818446;28;20108;-81
2021/09/18 13:31:47;;;;;;;2.28;1.50;;;25.60;99.90;;;;;;20818031;28;20056;-79
2021/09/18 13:41:47;;;;;;;4.15;1.45;;;26.20;99.90;;;;;;20817802;28;20033;-80
2021/09/18 13:51:49;;;;;;;2.00;1.48;;;26.80;99.90;;;;;;20819945;28;20044;-81
2021/09/18 14:01:50;;;;;;;1.52;1.30;;;26.40;99.90;;;;;;20818462;28;20041;-80
2021/09/18 14:11:52;;;;;;;1.27;1.17;;;26.00;99.90;;;;;;20756793;28;20473;-80
2021/09/18 14:21:52;;;;;;;3.45;1.40;;;26.60;99.90;;;;;;20770107;28;20066;-80
2021/09/18 14:31:53;;;;;;;1.98;1.48;;;26.60;99.90;;;;;;20733145;28;20132;-81
2021/09/18 14:41:54;;;;;;;1.38;1.10;;;26.50;99.90;;;;;;20747178;28;20121;-81
2021/09/18 14:51:55;;;;;;;1.48;1.20;;;26.50;99.90;;;;;;20776975;28;20040;-80
2021/09/18 15:01:56;;;;;;;1.95;1.63;;;26.60;99.90;;;;;;20787819;28;20044;-81
2021/09/18 15:11:57;;;;;;;3.38;1.38;;;26.50;99.90;;;;;;20809471;28;20033;-83
2021/09/18 15:21:58;;;;;;;2.10;1.30;;;26.40;99.90;;;;;;20814805;28;20124;-84
2021/09/18 15:31:59;;;;;;;3.17;1.45;;;25.70;99.90;;;;;;20805492;28;20040;-82
2021/09/18 15:42:00;;;;;;;2.60;1.35;;;25.70;99.90;;;;;;20801543;28;20844;-82
2021/09/18 15:52:01;;;;;;;3.83;1.50;;;25.20;99.90;;;;;;20773259;28;20164;-81
2021/09/18 16:02:02;;;;;;;;;;;24.80;99.90;;;;;;20814064;28;20478;-79
2021/09/18 16:12:03;;;;;;;2.50;1.60;;;23.70;99.90;;;;;;20790045;28;20608;-78
2021/09/18 16:22:06;;;;;;;2.42;1.70;;;23.60;99.90;;;;;;20827384;28;20319;-79
2021/09/18 16:32:07;;;;;;;2.22;1.70;;;23.00;99.90;;;;;;20788003;28;20029;-77
2021/09/18 16:42:08;;;;;;;3.47;1.80;;;22.60;99.90;;;;;;20763619;28;20034;-77
2021/09/18 16:52:09;;;;;;;;;;;22.40;99.90;;;;;;20776343;28;20033;-78
2021/09/18 17:02:10;;;;;;;3.73;1.67;;;22.30;99.90;;;;;;20791414;28;20397;-78
2021/09/18 17:12:11;;;;;;;2.63;2.03;;;21.80;99.90;;;;;;20788906;28;20033;-79
2021/09/18 17:22:12;;;;;;;4.80;2.08;;;20.70;99.90;;;;;;20809220;28;20041;-79
2021/09/18 17:32:14;;;;;;;4.40;2.50;;;19.50;99.90;;;;;;20828783;28;20063;-79
2021/09/18 17:42:14;;;;;;;8.73;4.35;;;18.40;99.90;;;;;;20811008;28;20547;-80
2021/09/18 17:52:15;;;;;;;11.40;6.47;;;18.20;99.90;;;;;;20774877;28;20041;-80
2021/09/18 18:02:16;;;;;;;9.00;3.63;;;17.40;99.90;;;;;;20789411;23;20045;-75
2021/09/18 18:12:17;;;;;;;3.47;2.90;;;17.10;99.90;;;;;;20766471;28;20044;-76
2021/09/18 18:22:18;;;;;;;4.10;2.43;;;17.40;99.90;;;;;;20796476;28;20038;-76
2021/09/18 18:32:19;;;;;;;4.87;3.00;;;17.20;99.90;;;;;;20807932;28;20495;-78
2021/09/18 18:42:21;;;;;;;6.30;3.63;;;17.60;99.90;;;;;;20789067;28;20026;-77
2021/09/18 18:52:22;;;;;;;4.40;2.50;;;17.60;99.90;;;;;;20790384;28;20599;-77
2021/09/18 19:02:23;;;;;;;5.00;3.30;;;16.90;99.90;;;;;;20744336;28;20096;-77
2021/09/18 19:12:24;;;;;;;4.77;3.53;;;16.30;99.90;;;;;;20760669;28;20777;-77
2021/09/18 19:22:26;;;;;;;;;;;16.10;99.90;;;;;;20821367;28;20053;-77
2021/09/18 19:32:30;;;;;;;6.10;4.18;;;15.90;99.90;;;;;;20779847;28;20438;-77
2021/09/18 19:42:33;;;;;;;7.35;4.00;;;15.80;99.90;;;;;;20765784;28;20057;-77
2021/09/18 19:52:33;;;;;;;10.07;4.30;;;15.60;99.90;;;;;;20775814;28;20060;-77
2021/09/18 20:02:34;;;;;;;8.27;4.60;;;15.30;99.90;;;;;;20763708;28;20407;-77
2021/09/18 20:12:37;;;;;;;10.93;5.07;;;15.40;99.90;;;;;;20773937;28;20029;-78
2021/09/18 20:22:37;;;;;;;8.68;4.28;;;15.40;99.90;;;;;;20766874;28;20041;-77
2021/09/18 20:32:38;;;;;;;8.63;4.20;;;15.20;99.90;;;;;;20770344;28;20029;-77
2021/09/18 20:42:39;;;;;;;7.40;3.67;;;15.10;99.90;;;;;;20805894;28;20580;-77
2021/09/18 20:52:40;;;;;;;7.10;4.00;;;14.90;99.90;;;;;;20755726;28;20034;-77
2021/09/18 21:13:01;;;;;;;6.45;3.28;;;14.70;99.90;;;;;;20753302;28;20032;-76
2021/09/18 21:23:02;;;;;;;5.73;3.47;;;14.80;99.90;;;;;;20812008;28;20083;-77
2021/09/18 21:33:03;;;;;;;4.22;3.20;;;14.80;99.90;;;;;;20814370;28;20493;-77
2021/09/18 21:43:04;;;;;;;6.17;3.10;;;14.70;99.90;;;;;;20823214;28;20030;-77
2021/09/18 21:53:05;;;;;;;6.60;3.23;;;14.50;99.90;;;;;;20744025;28;20110;-77
2021/09/18 22:03:07;;;;;;;6.77;3.03;;;14.60;99.90;;;;;;20700437;28;20101;-77
2021/09/18 22:13:08;;;;;;;4.55;2.78;;;14.50;99.90;;;;;;20814677;28;20403;-77
2021/09/18 22:23:09;;;;;;;4.40;3.00;;;14.40;99.90;;;;;;20823086;28;20132;-77
2021/09/18 22:33:10;;;;;;;8.17;2.87;;;14.50;99.90;;;;;;20824482;28;20080;-77
2021/09/18 22:43:11;;;;;;;3.93;2.93;;;14.40;99.90;;;;;;20798409;28;20076;-77
2021/09/18 22:53:11;;;;;;;5.80;3.63;;;14.30;99.90;;;;;;20677281;28;20121;-77
2021/09/18 23:03:13;;;;;;;6.77;3.13;;;14.10;99.90;;;;;;20675395;28;20441;-78
2021/09/18 23:13:14;;;;;;;7.77;3.00;;;13.90;99.90;;;;;;20675623;28;20030;-77
2021/09/18 23:23:15;;;;;;;3.83;2.83;;;13.80;99.90;;;;;;20675285;28;20031;-77
2021/09/18 23:33:16;;;;;;;4.57;3.03;;;13.70;99.90;;;;;;20674569;28;20058;-78
2021/09/18 23:43:16;;;;;;;3.90;2.90;;;13.60;99.90;;;;;;20674132;28;20033;-78
2021/09/18 23:53:17;;;;;;;4.43;3.30;;;13.50;99.90;;;;;;20673011;28;20073;-77
